Lobo

Jump to table bottom
Date/Time Temp deg F RH % 24 Hr Snow (in) Snow Depth (in) SWE (in)
05/23 20:00 52.0 36 "NAN" 35.5 0.00
05/23 19:00 52.0 39 "NAN" 35.2 0.00
05/23 18:00 54.1 36 "NAN" 35.2 0.00
05/23 17:00 54.2 35 "NAN" 34.8 0.00
05/23 16:00 55.2 34 "NAN" 33.9 0.00
05/23 15:00 56.9 34 "NAN" 34.3 0.00
05/23 14:00 55.8 35 "NAN" 34.9 0.00
05/23 13:00 54.7 35 "NAN" 35.9 0.00
05/23 12:00 53.7 37 "NAN" 36.4 0.00
05/23 11:00 50.5 40 "NAN" 37.4 0.00
05/23 10:00 48.1 39 "NAN" 38.0 0.00
05/23 09:00 44.3 51 "NAN" 38.2 0.00
05/23 08:00 41.6 58 "NAN" 38.3 0.00
05/23 07:00 41.2 56 "NAN" 38.4 0.00
05/23 06:00 38.3 63 "NAN" 38.4 0.00
05/23 05:00 38.8 59 "NAN" 38.4 0.00
05/23 04:00 39.3 58 "NAN" 38.3 0.00
05/23 03:00 38.3 60 "NAN" 38.5 0.00
05/23 02:00 36.9 65 "NAN" 38.5 0.00
05/23 01:00 36.6 65 "NAN" 38.3 0.00
05/23 00:00 38.3 60 "NAN" 38.2 0.00
05/22 23:00 39.2 56 "NAN" 38.2 0.00
05/22 22:00 39.4 57 "NAN" 38.2 0.00
05/22 21:00 39.4 63 "NAN" 38.1 0.00
05/22 20:00 39.6 69 "NAN" 38.0 0.00
05/22 19:00 40.5 65 "NAN" 38.2 0.00
05/22 18:00 42.1 60 "NAN" 38.0 0.00
05/22 17:00 43.4 52 "NAN" 38.1 0.00
05/22 16:00 43.0 54 "NAN" 38.2 0.00
05/22 15:00 42.5 56 "NAN" 38.2 0.00
05/22 14:00 44.5 49 "NAN" 38.8 0.00
05/22 13:00 43.9 52 "NAN" 39.2 0.00
05/22 12:00 44.2 50 "NAN" 39.7 0.00
05/22 11:00 42.3 56 "NAN" 39.5 0.00
05/22 10:00 44.1 48 "NAN" 39.8 0.00
05/22 09:00 40.1 57 "NAN" 39.9 0.00
05/22 08:00 39.3 57 "NAN" 40.0 0.00
05/22 07:00 37.6 61 "NAN" 40.2 0.00
05/22 06:00 37.0 60 "NAN" 40.3 0.00
05/22 05:00 36.6 60 "NAN" 40.1 0.00
05/22 04:00 36.3 57 "NAN" 40.3 0.00
05/22 03:00 36.9 56 "NAN" 40.2 0.00
05/22 02:00 36.8 63 "NAN" 40.1 0.00
05/22 01:00 37.7 61 "NAN" 40.1 0.00
05/22 00:00 37.7 55 "NAN" 40.1 0.00
.